createdAt,value
2019-04-10T00:01:53.700Z,10.70
2019-04-10T00:04:43.247Z,10.70
2019-04-10T00:07:33.218Z,10.60
2019-04-10T00:10:22.340Z,10.60
2019-04-10T00:13:12.131Z,10.50
2019-04-10T00:16:00.997Z,10.40
2019-04-10T00:18:50.543Z,10.50
2019-04-10T00:21:39.800Z,10.40
2019-04-10T00:24:30.179Z,10.40
2019-04-10T00:27:19.304Z,10.40
2019-04-10T00:30:09.259Z,10.30
2019-04-10T00:32:58.580Z,10.30
2019-04-10T00:35:47.733Z,10.30
2019-04-10T00:38:36.534Z,10.20
2019-04-10T00:41:25.736Z,10.20
2019-04-10T00:44:15.309Z,10.10
2019-04-10T00:47:04.514Z,10.20
2019-04-10T00:49:53.789Z,10.10
2019-04-10T00:52:42.743Z,10.10
2019-04-10T00:55:32.111Z,10.10
2019-04-10T00:58:20.905Z,10.10
2019-04-10T01:01:09.681Z,9.90
2019-04-10T01:04:00.217Z,9.80
2019-04-10T01:06:50.391Z,9.70
2019-04-10T01:09:39.675Z,9.80
2019-04-10T01:12:28.282Z,9.80
2019-04-10T01:15:16.990Z,9.70
2019-04-10T01:18:06.816Z,9.70
2019-04-10T01:20:56.343Z,9.70
2019-04-10T01:23:45.028Z,9.60
2019-04-10T01:26:34.933Z,9.60
2019-04-10T01:29:25.117Z,9.50
2019-04-10T01:32:01.720Z,9.50
2019-04-10T01:34:51.757Z,9.40
2019-04-10T01:37:49.435Z,9.40
2019-04-10T01:40:30.958Z,9.50
2019-04-10T01:43:22.495Z,9.40
2019-04-10T01:46:11.797Z,9.30
2019-04-10T01:49:00.245Z,9.30
2019-04-10T01:51:49.737Z,9.30
2019-04-10T01:54:39.581Z,9.30
2019-04-10T01:57:22.706Z,9.20
2019-04-10T02:00:15.245Z,9.20
2019-04-10T02:03:05.585Z,9.10
2019-04-10T02:05:54.875Z,9.10
2019-04-10T02:08:43.105Z,9.00
2019-04-10T02:11:32.287Z,9.00
2019-04-10T02:14:22.429Z,9.00
2019-04-10T02:17:12.603Z,8.90
2019-04-10T02:20:01.439Z,8.90
2019-04-10T02:22:50.521Z,8.80
2019-04-10T02:25:39.612Z,8.80
2019-04-10T02:28:29.135Z,8.80
2019-04-10T02:31:19.115Z,8.70
2019-04-10T02:34:09.391Z,8.70
2019-04-10T02:37:00.513Z,8.60
2019-04-10T02:39:52.961Z,8.60
2019-04-10T02:42:41.084Z,8.60
2019-04-10T02:45:30.176Z,8.50
2019-04-10T02:48:19.358Z,8.60
2019-04-10T02:51:09.712Z,8.50
2019-04-10T02:54:00.313Z,8.50
2019-04-10T02:56:43.509Z,8.40
2019-04-10T02:59:33.598Z,8.40
2019-04-10T03:02:23.831Z,8.40
2019-04-10T03:05:13.700Z,8.30
2019-04-10T03:08:04.921Z,8.30
2019-04-10T03:10:59.694Z,8.20
2019-04-10T03:13:45.229Z,8.20
2019-04-10T03:16:35.453Z,8.10
2019-04-10T03:19:25.527Z,8.20
2019-04-10T03:22:14.682Z,8.10
2019-04-10T03:25:04.516Z,8.00
2019-04-10T03:27:54.485Z,8.00
2019-04-10T03:30:44.393Z,8.00
2019-04-10T03:33:50.549Z,7.90
2019-04-10T03:36:40.100Z,7.90
2019-04-10T03:39:32.872Z,7.90
2019-04-10T03:42:21.017Z,7.90
2019-04-10T03:45:11.497Z,7.80
2019-04-10T03:48:00.687Z,7.80
2019-04-10T03:50:50.220Z,7.80
2019-04-10T03:53:38.562Z,7.80
2019-04-10T03:56:27.846Z,7.70
2019-04-10T03:59:16.566Z,7.60
2019-04-10T04:02:05.981Z,7.50
2019-04-10T04:04:55.938Z,7.40
2019-04-10T04:07:44.735Z,7.40
2019-04-10T04:10:34.953Z,7.40
2019-04-10T04:13:24.446Z,7.40
2019-04-10T04:16:14.954Z,7.30
2019-04-10T04:19:05.845Z,7.30
2019-04-10T04:21:56.200Z,7.30
2019-04-10T04:24:46.260Z,7.20
2019-04-10T04:27:35.699Z,7.30
2019-04-10T04:30:25.082Z,7.20
2019-04-10T04:33:13.994Z,7.10
2019-04-10T04:36:02.515Z,7.10
2019-04-10T04:38:51.944Z,7.10
2019-04-10T04:41:40.712Z,7.00
2019-04-10T04:44:31.074Z,7.00
2019-04-10T04:47:20.524Z,7.00
2019-04-10T04:50:09.810Z,6.90
2019-04-10T04:52:58.711Z,6.90
2019-04-10T04:55:47.486Z,6.90
2019-04-10T04:58:38.071Z,6.90
2019-04-10T05:01:08.509Z,6.80
2019-04-10T05:03:58.251Z,6.80
2019-04-10T05:06:47.998Z,6.80
2019-04-10T05:09:39.141Z,6.80
2019-04-10T05:12:27.674Z,6.80
2019-04-10T05:15:16.990Z,6.70
2019-04-10T05:18:06.306Z,6.70
2019-04-10T05:20:54.813Z,6.70
2019-04-10T05:23:43.390Z,6.60
2019-04-10T05:26:32.370Z,6.60
2019-04-10T05:29:21.679Z,6.60
2019-04-10T05:32:11.762Z,6.60
2019-04-10T05:35:03.940Z,6.50
2019-04-10T05:37:51.988Z,6.50
2019-04-10T05:40:22.049Z,6.40
2019-04-10T05:43:11.483Z,6.40
2019-04-10T05:46:01.139Z,6.30
2019-04-10T05:48:52.585Z,6.30
2019-04-10T05:51:41.630Z,6.30
2019-04-10T05:54:31.148Z,6.30
2019-04-10T05:57:20.157Z,6.30
2019-04-10T06:00:12.430Z,6.30
2019-04-10T06:03:01.465Z,6.30
2019-04-10T06:05:50.809Z,6.30
2019-04-10T06:08:41.464Z,6.30
2019-04-10T06:11:31.077Z,6.30
2019-04-10T06:14:20.281Z,6.30
2019-04-10T06:17:09.975Z,6.30
2019-04-10T06:19:59.224Z,6.40
2019-04-10T06:22:44.333Z,6.40
2019-04-10T06:25:36.004Z,6.40
2019-04-10T06:28:25.720Z,6.40
2019-04-10T06:31:14.705Z,6.60
2019-04-10T06:34:04.590Z,6.50
2019-04-10T06:36:53.505Z,6.60
2019-04-10T06:39:44.532Z,6.60
2019-04-10T06:42:43.629Z,6.60
2019-04-10T06:45:23.905Z,6.70
2019-04-10T06:48:13.210Z,6.70
2019-04-10T06:51:02.146Z,6.80
2019-04-10T06:53:33.210Z,6.80
2019-04-10T06:56:22.618Z,6.80
2019-04-10T06:59:12.190Z,6.80
2019-04-10T07:02:13.108Z,6.80
2019-04-10T07:04:55.654Z,6.90
2019-04-10T07:07:50.970Z,6.90
2019-04-10T07:10:42.586Z,6.90
2019-04-10T07:13:22.149Z,6.90
2019-04-10T07:16:11.660Z,6.90
2019-04-10T07:19:04.810Z,6.90
2019-04-10T07:21:52.246Z,6.90
2019-04-10T07:24:42.579Z,7.00
2019-04-10T07:27:35.412Z,7.00
2019-04-10T07:30:26.036Z,7.10
2019-04-10T07:33:16.561Z,7.30
2019-04-10T07:36:07.643Z,7.40
2019-04-10T07:38:55.864Z,7.40
2019-04-10T07:41:45.167Z,7.50
2019-04-10T07:44:34.184Z,7.40
2019-04-10T07:47:23.736Z,7.40
2019-04-10T07:50:14.259Z,7.50
2019-04-10T07:53:04.030Z,7.50
2019-04-10T07:56:01.421Z,7.50
2019-04-10T07:58:43.983Z,7.50
2019-04-10T08:01:33.446Z,7.60
2019-04-10T08:04:22.631Z,7.60
2019-04-10T08:07:24.489Z,7.60
2019-04-10T08:10:03.542Z,7.60
2019-04-10T08:12:54.150Z,7.70
2019-04-10T08:15:43.395Z,7.70
2019-04-10T08:18:32.289Z,7.80
2019-04-10T08:21:21.864Z,7.80
2019-04-10T08:24:12.080Z,8.00
2019-04-10T08:27:01.521Z,8.10
2019-04-10T08:29:52.893Z,8.20
2019-04-10T08:32:53.325Z,8.30
2019-04-10T08:35:33.636Z,8.40
2019-04-10T08:38:22.440Z,8.50
2019-04-10T08:41:12.928Z,8.50
2019-04-10T08:44:02.235Z,8.50
2019-04-10T08:46:50.911Z,8.60
2019-04-10T08:49:39.662Z,8.60
2019-04-10T08:52:28.943Z,8.70
2019-04-10T08:55:18.049Z,8.70
2019-04-10T08:58:06.652Z,8.80
2019-04-10T09:00:56.576Z,8.90
2019-04-10T09:03:46.603Z,8.90
2019-04-10T09:06:35.667Z,9.00
2019-04-10T09:09:25.700Z,9.10
2019-04-10T09:12:15.707Z,9.20
2019-04-10T09:15:07.692Z,9.30
2019-04-10T09:17:57.704Z,9.40
2019-04-10T09:20:46.993Z,9.50
2019-04-10T09:23:44.389Z,9.60
2019-04-10T09:26:26.522Z,9.80
2019-04-10T09:29:16.098Z,9.80
2019-04-10T09:32:04.819Z,9.90
2019-04-10T09:34:54.296Z,9.90
2019-04-10T09:37:43.595Z,10.10
2019-04-10T09:40:33.195Z,10.30
2019-04-10T09:43:23.088Z,10.30
2019-04-10T09:46:12.750Z,10.30
2019-04-10T09:49:02.528Z,10.30
2019-04-10T09:51:51.825Z,10.30
2019-04-10T09:54:40.988Z,10.50
2019-04-10T09:57:30.377Z,10.50
2019-04-10T10:00:21.399Z,10.60
2019-04-10T10:03:11.789Z,10.60
2019-04-10T10:06:01.682Z,10.70
2019-04-10T10:08:50.634Z,10.70
2019-04-10T10:11:39.965Z,10.90
2019-04-10T10:14:31.940Z,11.10
2019-04-10T10:17:20.351Z,11.20
2019-04-10T10:20:11.323Z,11.30
2019-04-10T10:23:01.329Z,11.40
2019-04-10T10:25:51.207Z,11.50
2019-04-10T10:28:40.236Z,11.50
2019-04-10T10:31:30.425Z,11.60
2019-04-10T10:34:20.414Z,11.70
2019-04-10T10:37:10.417Z,11.70
2019-04-10T10:39:59.651Z,11.80
2019-04-10T10:42:48.757Z,11.90
2019-04-10T10:45:38.719Z,12.00
2019-04-10T10:48:28.094Z,12.00
2019-04-10T10:51:18.284Z,12.10
2019-04-10T10:54:08.576Z,12.20
2019-04-10T10:56:58.470Z,12.30
2019-04-10T10:59:47.564Z,12.50
2019-04-10T11:02:36.665Z,12.80
2019-04-10T11:05:25.736Z,12.60
2019-04-10T11:08:15.319Z,12.30
2019-04-10T11:11:04.456Z,12.20
2019-04-10T11:13:54.991Z,12.20
2019-04-10T11:16:45.479Z,12.20
2019-04-10T11:19:35.494Z,12.20
2019-04-10T11:22:26.126Z,12.30
2019-04-10T11:25:16.675Z,12.30
2019-04-10T11:28:05.972Z,12.40
2019-04-10T11:30:56.096Z,12.40
2019-04-10T11:33:49.799Z,12.50
2019-04-10T11:36:36.187Z,12.50
2019-04-10T11:39:28.598Z,12.80
2019-04-10T11:42:16.054Z,13.20
2019-04-10T11:45:08.027Z,13.20
2019-04-10T11:47:58.774Z,13.20
2019-04-10T11:50:48.490Z,13.30
2019-04-10T11:53:41.431Z,13.30
2019-04-10T11:56:29.984Z,13.30
2019-04-10T11:59:21.599Z,13.30
2019-04-10T12:02:10.133Z,13.40
2019-04-10T12:05:07.441Z,13.40
2019-04-10T12:13:30.601Z,13.40
2019-04-10T12:16:19.619Z,13.50
2019-04-10T12:19:08.571Z,13.60
2019-04-10T12:21:58.030Z,13.70
2019-04-10T12:24:49.914Z,13.90
2019-04-10T12:27:39.043Z,14.00
2019-04-10T12:30:28.996Z,13.90
2019-04-10T12:33:17.705Z,13.80
2019-04-10T12:36:10.159Z,13.80
2019-04-10T12:39:00.324Z,13.90
2019-04-10T12:41:50.036Z,13.90
2019-04-10T12:44:39.992Z,13.90
2019-04-10T12:47:30.851Z,13.90
2019-04-10T12:50:20.401Z,14.00
2019-04-10T12:53:09.721Z,14.20
2019-04-10T12:55:58.437Z,14.20
2019-04-10T12:58:47.915Z,14.10
2019-04-10T13:01:38.513Z,14.20
2019-04-10T13:04:28.143Z,14.20
2019-04-10T13:07:17.808Z,14.20
2019-04-10T13:10:08.604Z,14.20
2019-04-10T13:12:58.153Z,14.30
2019-04-10T13:15:47.648Z,14.50
2019-04-10T13:18:36.781Z,14.60
2019-04-10T13:21:26.640Z,14.60
2019-04-10T13:24:15.713Z,14.60
2019-04-10T13:27:06.200Z,14.70
2019-04-10T13:29:54.661Z,14.70
2019-04-10T13:32:44.428Z,14.80
2019-04-10T13:35:34.345Z,14.70
2019-04-10T13:38:29.260Z,14.60
2019-04-10T13:41:14.380Z,14.50
2019-04-10T13:44:02.866Z,14.40
2019-04-10T13:46:51.834Z,14.50
2019-04-10T13:49:42.008Z,14.70
2019-04-10T13:52:32.080Z,14.90
2019-04-10T13:55:21.144Z,14.80
2019-04-10T13:58:10.809Z,14.70
2019-04-10T14:01:00.969Z,14.70
2019-04-10T14:03:50.365Z,14.70
2019-04-10T14:06:39.258Z,14.90
2019-04-10T14:09:31.312Z,15.00
2019-04-10T14:12:07.954Z,15.10
2019-04-10T14:14:57.414Z,15.30
2019-04-10T14:17:46.044Z,15.30
2019-04-10T14:20:35.437Z,15.30
2019-04-10T14:23:28.551Z,15.30
2019-04-10T14:26:45.925Z,15.20
2019-04-10T14:29:25.385Z,15.30
2019-04-10T14:32:24.931Z,15.20
2019-04-10T14:35:14.787Z,15.20
2019-04-10T14:38:04.745Z,15.40
2019-04-10T14:40:54.191Z,15.40
2019-04-10T14:43:45.166Z,15.20
2019-04-10T14:46:35.956Z,15.30
2019-04-10T14:49:27.151Z,15.20
2019-04-10T14:52:16.953Z,15.30
2019-04-10T14:55:06.204Z,15.10
2019-04-10T14:57:55.267Z,15.20
2019-04-10T15:00:49.582Z,15.20
2019-04-10T15:03:40.285Z,15.20
2019-04-10T15:06:29.578Z,15.10
2019-04-10T15:09:25.587Z,15.00
2019-04-10T15:12:14.360Z,15.20
2019-04-10T15:15:04.348Z,15.10
2019-04-10T15:17:54.151Z,15.10
2019-04-10T15:20:43.668Z,15.10
2019-04-10T15:23:33.648Z,15.10
2019-04-10T15:26:23.958Z,15.20
2019-04-10T15:29:14.238Z,15.10
2019-04-10T15:32:04.222Z,15.00
2019-04-10T15:34:53.675Z,15.00
2019-04-10T15:37:42.884Z,14.80
2019-04-10T15:40:32.339Z,14.70
2019-04-10T15:43:23.581Z,14.70
2019-04-10T15:46:12.905Z,14.80
2019-04-10T15:49:02.951Z,14.80
2019-04-10T15:51:53.333Z,14.80
2019-04-10T15:54:42.425Z,14.70
2019-04-10T15:57:44.072Z,14.60
2019-04-10T16:00:23.254Z,14.60
2019-04-10T16:03:11.900Z,14.60
2019-04-10T16:06:01.409Z,14.70
2019-04-10T16:08:50.835Z,14.90
2019-04-10T16:11:50.342Z,15.10
2019-04-10T16:14:40.029Z,15.00
2019-04-10T16:17:39.981Z,15.10
2019-04-10T16:20:30.898Z,15.00
2019-04-10T16:23:30.011Z,14.70
2019-04-10T16:26:19.504Z,14.60
2019-04-10T16:29:09.609Z,14.70
2019-04-10T16:32:00.007Z,14.80
2019-04-10T16:34:49.108Z,14.80
2019-04-10T16:37:40.474Z,14.50
2019-04-10T16:40:30.049Z,14.60
2019-04-10T16:43:20.196Z,14.60
2019-04-10T16:46:09.717Z,14.60
2019-04-10T16:49:00.223Z,14.50
2019-04-10T16:51:50.410Z,14.60
2019-04-10T16:54:40.980Z,14.60
2019-04-10T16:57:29.703Z,14.50
2019-04-10T17:00:20.682Z,14.20
2019-04-10T17:03:11.485Z,14.10
2019-04-10T17:06:00.487Z,14.00
2019-04-10T17:08:49.748Z,13.80
2019-04-10T17:11:39.460Z,13.60
2019-04-10T17:14:29.395Z,13.50
2019-04-10T17:17:20.171Z,13.60
2019-04-10T17:20:09.906Z,13.60
2019-04-10T17:23:00.307Z,13.60
2019-04-10T17:25:38.016Z,13.60
2019-04-10T17:28:28.204Z,13.60
2019-04-10T17:31:18.222Z,13.50
2019-04-10T17:33:58.676Z,13.30
2019-04-10T17:36:49.477Z,13.30
2019-04-10T17:39:39.727Z,13.20
2019-04-10T17:42:30.416Z,13.00
2019-04-10T17:45:20.639Z,12.70
2019-04-10T17:48:10.064Z,12.50
2019-04-10T17:50:59.537Z,12.30
2019-04-10T17:53:49.553Z,12.10
2019-04-10T17:56:39.953Z,12.10
2019-04-10T17:59:30.120Z,12.00
2019-04-10T18:02:21.217Z,11.90
2019-04-10T18:05:10.590Z,11.80
2019-04-10T18:08:00.718Z,11.60
2019-04-10T18:10:52.534Z,11.40
2019-04-10T18:13:39.737Z,11.30
2019-04-10T18:16:29.656Z,11.20
2019-04-10T18:19:19.128Z,11.20
2019-04-10T18:22:08.128Z,11.10
2019-04-10T18:24:57.786Z,11.00
2019-04-10T18:27:47.377Z,10.90
2019-04-10T18:30:37.143Z,10.90
2019-04-10T18:33:26.544Z,10.80
2019-04-10T18:36:15.875Z,10.80
2019-04-10T18:39:11.372Z,10.70
2019-04-10T18:41:59.785Z,10.70
2019-04-10T18:44:49.074Z,10.60
2019-04-10T18:47:39.333Z,10.50
2019-04-10T18:50:28.651Z,10.50
2019-04-10T18:53:19.187Z,10.40
2019-04-10T18:55:49.882Z,10.40
2019-04-10T18:58:46.342Z,10.30
2019-04-10T19:01:43.262Z,10.30
2019-04-10T19:04:43.394Z,10.20
2019-04-10T19:07:32.726Z,10.20
2019-04-10T19:10:22.145Z,10.10
2019-04-10T19:13:11.540Z,10.10
2019-04-10T19:16:01.366Z,10.00
2019-04-10T19:18:52.258Z,10.00
2019-04-10T19:21:42.148Z,9.90
2019-04-10T19:24:32.346Z,9.90
2019-04-10T19:27:22.202Z,9.90
2019-04-10T19:30:32.070Z,9.80
2019-04-10T19:33:21.700Z,9.70
2019-04-10T19:36:11.956Z,9.70
2019-04-10T19:39:02.102Z,9.70
2019-04-10T19:41:51.613Z,9.60
2019-04-10T19:44:41.397Z,9.60
2019-04-10T19:47:30.696Z,9.50
2019-04-10T19:50:20.000Z,9.50
2019-04-10T19:53:09.171Z,9.40
2019-04-10T19:55:40.042Z,9.40
2019-04-10T19:58:30.187Z,9.40
2019-04-10T20:01:19.184Z,9.30
2019-04-10T20:04:08.283Z,9.30
2019-04-10T20:07:00.594Z,9.30
2019-04-10T20:09:49.591Z,9.30
2019-04-10T20:12:38.797Z,9.20
2019-04-10T20:15:28.843Z,9.20
2019-04-10T20:18:18.881Z,9.20
2019-04-10T20:21:07.973Z,9.10
2019-04-10T20:23:58.475Z,9.10
2019-04-10T20:26:49.577Z,9.00
2019-04-10T20:29:39.326Z,9.00
2019-04-10T20:32:30.073Z,9.00
2019-04-10T20:35:20.264Z,8.90
2019-04-10T20:38:09.343Z,8.90
2019-04-10T20:41:00.331Z,8.90
2019-04-10T20:43:48.744Z,8.80
2019-04-10T20:46:38.212Z,8.80
2019-04-10T20:49:28.060Z,8.70
2019-04-10T20:52:17.932Z,8.70
2019-04-10T20:55:09.114Z,8.60
2019-04-10T20:57:59.686Z,8.60
2019-04-10T21:00:49.819Z,8.60
2019-04-10T21:03:40.129Z,8.60
2019-04-10T21:06:29.623Z,8.50
2019-04-10T21:09:19.135Z,8.40
2019-04-10T21:12:13.001Z,8.40
2019-04-10T21:14:41.100Z,8.40
2019-04-10T21:17:14.303Z,8.40
2019-04-10T21:19:45.437Z,8.30
2019-04-10T21:22:17.320Z,8.30
2019-04-10T21:24:49.946Z,8.20
2019-04-10T21:27:39.782Z,8.20
2019-04-10T21:31:00.768Z,8.20
2019-04-10T21:34:07.704Z,8.20
2019-04-10T21:36:57.514Z,8.20
2019-04-10T21:39:47.156Z,8.10
2019-04-10T21:42:37.044Z,8.10
2019-04-10T21:45:26.528Z,8.00
2019-04-10T21:48:16.784Z,8.00
2019-04-10T21:51:06.703Z,7.90
2019-04-10T21:53:56.217Z,7.90
2019-04-10T21:56:45.377Z,7.90
2019-04-10T21:59:34.623Z,7.80
2019-04-10T22:02:23.890Z,7.80
2019-04-10T22:05:14.235Z,7.70
2019-04-10T22:08:21.899Z,7.70
2019-04-10T22:11:10.589Z,7.70
2019-04-10T22:14:00.445Z,7.70
2019-04-10T22:16:50.537Z,7.60
2019-04-10T22:19:40.917Z,7.60
2019-04-10T22:22:30.929Z,7.60
2019-04-10T22:25:19.520Z,7.60
2019-04-10T22:28:08.822Z,7.60
2019-04-10T22:30:58.102Z,7.50
2019-04-10T22:33:46.811Z,7.50
2019-04-10T22:36:35.820Z,7.50
2019-04-10T22:39:25.423Z,7.40
2019-04-10T22:42:16.540Z,7.40
2019-04-10T22:45:08.324Z,7.40
2019-04-10T22:47:39.251Z,7.30
2019-04-10T22:50:29.036Z,7.30
2019-04-10T22:53:19.241Z,7.30
2019-04-10T22:56:09.142Z,7.30
2019-04-10T22:58:58.267Z,7.30
2019-04-10T23:01:59.427Z,7.30
2019-04-10T23:04:39.169Z,7.20
2019-04-10T23:07:28.304Z,7.20
2019-04-10T23:10:17.167Z,7.10
2019-04-10T23:13:07.532Z,7.10
2019-04-10T23:15:57.748Z,7.00
2019-04-10T23:18:47.787Z,7.00
2019-04-10T23:21:36.798Z,6.90
2019-04-10T23:24:26.234Z,7.00
2019-04-10T23:27:15.619Z,6.90
2019-04-10T23:30:06.538Z,6.80
2019-04-10T23:32:55.445Z,6.80
2019-04-10T23:35:45.434Z,6.80
2019-04-10T23:38:35.327Z,6.80
2019-04-10T23:41:25.445Z,6.90
2019-04-10T23:43:55.824Z,6.80
2019-04-10T23:46:45.448Z,6.80
2019-04-10T23:49:35.358Z,6.70
2019-04-10T23:52:25.316Z,6.70
2019-04-10T23:55:15.547Z,6.70
2019-04-10T23:58:05.510Z,6.70
